createdAt,value
2023-05-14T00:01:26.192Z,21.23
2023-05-14T00:03:54.181Z,22.85
2023-05-14T00:06:23.518Z,23.15
2023-05-14T00:08:51.459Z,22.05
2023-05-14T00:11:19.592Z,23.27
2023-05-14T00:13:47.643Z,22.17
2023-05-14T00:16:16.175Z,22.50
2023-05-14T00:18:44.133Z,22.27
2023-05-14T00:21:12.123Z,23.05
2023-05-14T00:23:41.515Z,22.70
2023-05-14T00:26:09.346Z,22.92
2023-05-14T00:28:38.309Z,23.80
2023-05-14T00:31:06.430Z,24.15
2023-05-14T00:33:35.781Z,21.38
2023-05-14T00:36:04.214Z,23.15
2023-05-14T00:38:32.163Z,22.25
2023-05-14T00:41:01.463Z,23.00
2023-05-14T00:43:29.553Z,23.00
2023-05-14T00:45:57.505Z,21.92
2023-05-14T00:48:26.271Z,23.35
2023-05-14T00:50:54.165Z,22.95
2023-05-14T00:53:22.137Z,21.60
2023-05-14T00:55:50.654Z,22.15
2023-05-14T00:58:20.398Z,22.65
2023-05-14T01:00:48.367Z,24.90
2023-05-14T01:03:16.621Z,25.45
2023-05-14T01:05:48.647Z,26.20
2023-05-14T01:08:22.387Z,24.08
2023-05-14T01:10:52.308Z,27.17
2023-05-14T01:13:27.110Z,27.33
2023-05-14T01:15:57.091Z,26.00
2023-05-14T01:18:25.629Z,26.75
2023-05-14T01:20:55.477Z,25.42
2023-05-14T01:23:25.172Z,26.58
2023-05-14T01:25:53.259Z,26.23
2023-05-14T01:28:23.373Z,25.45
2023-05-14T01:30:58.230Z,25.60
2023-05-14T01:35:54.681Z,24.05
2023-05-14T01:38:23.417Z,24.60
2023-05-14T01:40:53.595Z,24.67
2023-05-14T01:43:22.089Z,25.02
2023-05-14T01:45:50.090Z,26.00
2023-05-14T01:48:18.081Z,25.38
2023-05-14T01:50:45.957Z,24.23
2023-05-14T01:53:13.895Z,24.88
2023-05-14T01:55:41.884Z,25.55
2023-05-14T01:58:11.997Z,24.80
2023-05-14T02:00:39.874Z,26.45
2023-05-14T02:03:07.948Z,24.20
2023-05-14T02:05:35.832Z,25.25
2023-05-14T02:08:03.696Z,25.02
2023-05-14T02:10:31.897Z,25.20
2023-05-14T02:12:59.819Z,25.75
2023-05-14T02:15:29.625Z,26.77
2023-05-14T02:17:57.820Z,27.42
2023-05-14T02:20:25.988Z,28.08
2023-05-14T02:22:54.022Z,26.63
2023-05-14T02:25:22.185Z,27.48
2023-05-14T02:27:50.780Z,27.35
2023-05-14T02:30:18.774Z,28.08
2023-05-14T02:32:48.110Z,26.90
2023-05-14T02:35:16.099Z,27.55
2023-05-14T02:37:44.196Z,26.77
2023-05-14T02:40:12.341Z,26.65
2023-05-14T02:42:40.496Z,26.92
2023-05-14T02:45:08.781Z,26.90
2023-05-14T02:47:38.246Z,26.65
2023-05-14T02:50:08.560Z,28.10
2023-05-14T02:52:36.630Z,27.35
2023-05-14T02:55:04.871Z,27.92
2023-05-14T02:57:33.227Z,27.10
2023-05-14T03:00:01.105Z,27.15
2023-05-14T03:02:32.892Z,26.80
2023-05-14T03:05:01.345Z,28.45
2023-05-14T03:07:31.144Z,27.60
2023-05-14T03:10:00.403Z,27.65
2023-05-14T03:12:28.412Z,27.95
2023-05-14T03:14:56.315Z,26.85
2023-05-14T03:17:24.273Z,27.30
2023-05-14T03:19:52.171Z,26.83
2023-05-14T03:22:20.235Z,27.77
2023-05-14T03:24:50.280Z,28.30
2023-05-14T03:27:18.190Z,27.48
2023-05-14T03:29:46.032Z,28.20
2023-05-14T03:32:13.889Z,28.52
2023-05-14T03:34:42.324Z,37.65
2023-05-14T03:37:10.213Z,30.83
2023-05-14T03:39:38.234Z,30.10
2023-05-14T03:42:07.775Z,29.83
2023-05-14T03:44:36.042Z,26.95
2023-05-14T03:47:04.793Z,28.65
2023-05-14T03:49:32.853Z,26.90
2023-05-14T03:52:01.302Z,28.40
2023-05-14T03:54:29.689Z,27.05
2023-05-14T03:56:57.699Z,25.25
2023-05-14T03:59:27.089Z,27.30
2023-05-14T04:01:55.271Z,27.08
2023-05-14T04:04:23.285Z,26.90
2023-05-14T04:06:51.204Z,26.90
2023-05-14T04:09:19.120Z,28.70
2023-05-14T04:11:47.245Z,26.65
2023-05-14T04:14:16.333Z,26.17
2023-05-14T04:16:46.858Z,27.00
2023-05-14T04:19:15.245Z,27.23
2023-05-14T04:21:43.567Z,26.80
2023-05-14T04:24:11.776Z,26.45
2023-05-14T04:26:39.653Z,28.17
2023-05-14T04:29:07.499Z,27.85
2023-05-14T04:31:35.446Z,28.90
2023-05-14T04:34:04.677Z,28.92
2023-05-14T04:36:33.252Z,27.60
2023-05-14T04:39:01.793Z,28.75
2023-05-14T04:41:30.561Z,26.98
2023-05-14T04:43:58.990Z,26.52
2023-05-14T04:46:27.413Z,25.90
2023-05-14T04:48:56.477Z,26.45
2023-05-14T04:51:26.381Z,25.90
2023-05-14T04:53:54.261Z,26.75
2023-05-14T04:56:22.522Z,26.02
2023-05-14T04:58:50.483Z,24.33
2023-05-14T05:01:18.427Z,24.27
2023-05-14T05:03:46.432Z,25.42
2023-05-14T05:06:14.485Z,24.83
2023-05-14T05:08:43.726Z,23.88
2023-05-14T05:11:11.675Z,24.65
2023-05-14T05:13:39.779Z,24.02
2023-05-14T05:16:08.001Z,22.90
2023-05-14T05:18:36.007Z,22.35
2023-05-14T05:21:03.973Z,22.08
2023-05-14T05:23:31.820Z,22.15
2023-05-14T05:26:01.209Z,21.65
2023-05-14T05:28:30.200Z,22.30
2023-05-14T05:30:58.312Z,21.73
2023-05-14T05:33:28.219Z,23.23
2023-05-14T05:35:56.271Z,22.30
2023-05-14T05:38:24.225Z,21.42
2023-05-14T05:40:53.010Z,21.90
2023-05-14T05:43:22.247Z,23.17
2023-05-14T05:45:50.169Z,22.85
2023-05-14T05:48:18.075Z,22.58
2023-05-14T05:50:48.292Z,24.23
2023-05-14T05:53:16.775Z,24.23
2023-05-14T05:55:44.997Z,22.60
2023-05-14T05:58:15.795Z,22.27
2023-05-14T06:00:45.564Z,21.20
2023-05-14T06:03:15.169Z,21.55
2023-05-14T06:05:43.167Z,20.48
2023-05-14T06:08:11.429Z,19.33
2023-05-14T06:10:39.535Z,20.65
2023-05-14T06:13:07.394Z,18.23
2023-05-14T06:15:35.344Z,19.67
2023-05-14T06:18:06.387Z,17.92
2023-05-14T06:20:36.265Z,19.05
2023-05-14T06:23:04.147Z,18.45
2023-05-14T06:25:32.173Z,17.13
2023-05-14T06:28:00.363Z,16.20
2023-05-14T06:30:28.402Z,16.83
2023-05-14T06:32:56.636Z,17.08
2023-05-14T06:35:26.248Z,18.40
2023-05-14T06:37:56.270Z,17.77
2023-05-14T06:40:25.972Z,17.75
2023-05-14T06:42:54.200Z,18.23
2023-05-14T06:45:22.010Z,19.42
2023-05-14T06:47:52.445Z,18.77
2023-05-14T06:50:21.164Z,18.75
2023-05-14T06:52:51.433Z,17.75
2023-05-14T06:55:19.470Z,16.77
2023-05-14T06:57:47.692Z,17.67
2023-05-14T07:00:16.314Z,16.60
2023-05-14T07:02:44.404Z,17.77
2023-05-14T07:05:12.454Z,21.00
2023-05-14T07:07:40.406Z,17.45
2023-05-14T07:10:10.454Z,15.98
2023-05-14T07:12:38.513Z,15.85
2023-05-14T07:15:07.166Z,16.40
2023-05-14T07:17:35.269Z,14.77
2023-05-14T07:20:03.646Z,15.70
2023-05-14T07:22:33.343Z,17.65
2023-05-14T07:25:01.383Z,18.55
2023-05-14T07:27:30.849Z,18.75
2023-05-14T07:30:00.381Z,18.63
2023-05-14T07:32:30.218Z,17.67
2023-05-14T07:34:58.092Z,18.20
2023-05-14T07:37:26.977Z,16.58
2023-05-14T07:39:56.363Z,17.05
2023-05-14T07:42:35.890Z,17.00
2023-05-14T07:45:09.692Z,16.90
2023-05-14T07:47:38.025Z,16.60
2023-05-14T07:50:06.341Z,16.63
2023-05-14T07:52:34.252Z,17.55
2023-05-14T07:55:02.380Z,16.02
2023-05-14T07:57:32.333Z,15.90
2023-05-14T08:00:00.695Z,15.35
2023-05-14T08:02:42.842Z,15.20
2023-05-14T08:05:12.420Z,15.30
2023-05-14T08:07:41.519Z,15.48
2023-05-14T08:10:09.986Z,15.43
2023-05-14T08:12:37.877Z,16.02
2023-05-14T08:15:07.842Z,17.23
2023-05-14T08:17:36.078Z,16.40
2023-05-14T08:20:07.718Z,16.48
2023-05-14T08:22:37.510Z,16.10
2023-05-14T08:25:06.724Z,14.93
2023-05-14T08:27:35.548Z,14.98
2023-05-14T08:30:06.535Z,13.88
2023-05-14T08:32:34.569Z,13.48
2023-05-14T08:35:04.557Z,14.02
2023-05-14T08:37:35.702Z,14.85
2023-05-14T08:40:03.635Z,18.05
2023-05-14T08:42:32.003Z,17.77
2023-05-14T08:45:02.541Z,20.67
2023-05-14T08:47:32.497Z,17.55
2023-05-14T08:50:02.916Z,18.05
2023-05-14T08:52:31.296Z,16.33
2023-05-14T08:55:03.813Z,16.90
2023-05-14T08:57:33.133Z,14.73
2023-05-14T09:00:01.683Z,10.07
2023-05-14T09:02:31.909Z,9.77
2023-05-14T09:05:01.252Z,11.00
2023-05-14T09:07:29.275Z,11.35
2023-05-14T09:09:57.214Z,14.88
2023-05-14T09:12:28.366Z,16.17
2023-05-14T09:14:56.266Z,17.35
2023-05-14T09:17:26.630Z,15.25
2023-05-14T09:19:56.240Z,14.48
2023-05-14T09:22:26.516Z,15.20
2023-05-14T09:25:05.563Z,15.68
2023-05-14T09:27:35.037Z,16.17
2023-05-14T09:30:06.882Z,15.85
2023-05-14T09:32:40.213Z,14.85
2023-05-14T09:35:12.657Z,16.92
2023-05-14T09:37:42.819Z,18.42
2023-05-14T09:40:11.110Z,17.25
2023-05-14T09:42:40.568Z,19.08
2023-05-14T09:45:08.959Z,31.75
2023-05-14T09:47:37.417Z,17.00
2023-05-14T09:50:08.018Z,16.45
2023-05-14T09:52:36.105Z,16.60
2023-05-14T09:55:05.700Z,19.33
2023-05-14T09:57:33.752Z,18.92
2023-05-14T10:00:06.621Z,17.95
2023-05-14T10:02:38.208Z,18.58
2023-05-14T10:05:07.336Z,17.23
2023-05-14T10:07:36.627Z,18.15
2023-05-14T10:10:05.473Z,17.45
2023-05-14T10:12:34.498Z,15.02
2023-05-14T10:15:11.598Z,15.55
2023-05-14T10:17:42.320Z,15.40
2023-05-14T10:20:12.062Z,14.15
2023-05-14T10:22:40.132Z,12.63
2023-05-14T10:25:08.746Z,13.90
2023-05-14T10:27:36.840Z,11.82
2023-05-14T10:30:06.999Z,11.13
2023-05-14T10:32:37.985Z,11.65
2023-05-14T10:35:16.682Z,13.40
2023-05-14T10:37:45.768Z,12.05
2023-05-14T10:40:13.786Z,11.98
2023-05-14T10:42:43.585Z,11.65
2023-05-14T10:45:13.882Z,11.63
2023-05-14T10:47:44.667Z,10.20
2023-05-14T10:50:13.183Z,10.07
2023-05-14T10:52:42.812Z,10.00
2023-05-14T10:55:13.656Z,9.57
2023-05-14T10:57:43.420Z,8.73
2023-05-14T11:00:14.180Z,9.50
2023-05-14T11:02:44.390Z,9.35
2023-05-14T11:05:14.217Z,8.68
2023-05-14T11:07:44.873Z,9.57
2023-05-14T11:10:14.680Z,10.00
2023-05-14T11:12:43.709Z,8.40
2023-05-14T11:15:13.506Z,8.48
2023-05-14T11:17:44.357Z,9.57
2023-05-14T11:20:12.955Z,9.38
2023-05-14T11:22:43.421Z,8.73
2023-05-14T11:25:14.577Z,8.93
2023-05-14T11:27:45.698Z,8.60
2023-05-14T11:30:16.835Z,8.23
2023-05-14T11:32:45.578Z,7.57
2023-05-14T11:35:15.408Z,7.60
2023-05-14T11:37:43.364Z,8.35
2023-05-14T11:40:17.866Z,8.00
2023-05-14T11:45:25.441Z,9.55
2023-05-14T11:47:53.804Z,7.95
2023-05-14T11:50:24.070Z,8.38
2023-05-14T11:52:57.584Z,8.52
2023-05-14T11:55:25.892Z,8.73
2023-05-14T11:57:53.937Z,10.38
2023-05-14T12:00:25.024Z,8.30
2023-05-14T12:02:53.292Z,7.53
2023-05-14T12:05:22.753Z,7.55
2023-05-14T12:07:50.776Z,8.70
2023-05-14T12:10:18.768Z,7.45
2023-05-14T12:12:48.051Z,7.75
2023-05-14T12:15:17.746Z,7.82
2023-05-14T12:17:52.570Z,7.05
2023-05-14T12:20:20.592Z,7.32
2023-05-14T12:22:51.779Z,7.72
2023-05-14T12:25:20.661Z,7.18
2023-05-14T12:27:48.648Z,6.82
2023-05-14T12:30:21.421Z,6.45
2023-05-14T12:32:54.015Z,7.38
2023-05-14T12:35:22.620Z,7.35
2023-05-14T12:37:52.460Z,6.95
2023-05-14T12:40:20.489Z,6.78
2023-05-14T12:42:48.346Z,29.23
2023-05-14T12:45:16.279Z,6.47
2023-05-14T12:47:44.832Z,6.60
2023-05-14T12:50:14.110Z,5.80
2023-05-14T12:52:43.663Z,6.40
2023-05-14T12:55:11.577Z,6.45
2023-05-14T12:57:39.868Z,6.32
2023-05-14T13:00:08.571Z,6.55
2023-05-14T13:02:42.923Z,6.18
2023-05-14T13:05:12.877Z,6.25
2023-05-14T13:07:42.611Z,5.65
2023-05-14T13:10:12.943Z,5.70
2023-05-14T13:12:40.953Z,5.97
2023-05-14T13:15:10.704Z,5.75
2023-05-14T13:17:38.645Z,6.13
2023-05-14T13:20:07.306Z,5.88
2023-05-14T13:22:36.021Z,5.13
2023-05-14T13:25:05.990Z,5.78
2023-05-14T13:27:37.780Z,6.70
2023-05-14T13:30:07.882Z,5.57
2023-05-14T13:32:35.814Z,5.28
2023-05-14T13:35:03.696Z,5.63
2023-05-14T13:37:31.724Z,5.50
2023-05-14T13:39:59.829Z,4.82
2023-05-14T13:42:29.071Z,5.28
2023-05-14T13:44:57.013Z,4.78
2023-05-14T13:47:24.962Z,5.30
2023-05-14T13:49:53.140Z,4.93
2023-05-14T13:52:22.452Z,5.03
2023-05-14T13:54:51.021Z,5.18
2023-05-14T13:57:19.015Z,4.15
2023-05-14T13:59:48.435Z,5.05
2023-05-14T14:02:17.944Z,4.40
2023-05-14T14:04:46.234Z,4.22
2023-05-14T14:07:14.125Z,5.03
2023-05-14T14:09:41.971Z,4.60
2023-05-14T14:12:10.482Z,4.53
2023-05-14T14:14:38.327Z,4.20
2023-05-14T14:17:09.081Z,3.80
2023-05-14T14:19:38.584Z,3.83
2023-05-14T14:22:07.617Z,3.55
2023-05-14T14:24:36.935Z,2.60
2023-05-14T14:27:06.648Z,3.20
2023-05-14T14:29:36.603Z,3.38
2023-05-14T14:32:04.749Z,3.38
2023-05-14T14:34:34.071Z,3.40
2023-05-14T14:37:01.995Z,2.83
2023-05-14T14:39:29.913Z,2.90
2023-05-14T14:41:57.951Z,6.55
2023-05-14T14:44:26.655Z,2.70
2023-05-14T14:46:54.584Z,3.10
2023-05-14T14:49:23.025Z,3.53
2023-05-14T14:51:52.342Z,2.88
2023-05-14T14:54:20.278Z,2.63
2023-05-14T14:56:49.267Z,2.90
2023-05-14T14:59:17.693Z,2.55
2023-05-14T15:01:45.755Z,2.72
2023-05-14T15:04:13.913Z,2.78
2023-05-14T15:06:41.828Z,2.17
2023-05-14T15:09:10.999Z,2.30
2023-05-14T15:11:40.784Z,2.65
2023-05-14T15:14:08.674Z,2.53
2023-05-14T15:16:37.935Z,2.30
2023-05-14T15:19:07.875Z,2.40
2023-05-14T15:21:35.802Z,2.42
2023-05-14T15:24:06.235Z,2.20
2023-05-14T15:26:36.948Z,6.65
2023-05-14T15:29:05.738Z,3.60
2023-05-14T15:31:33.819Z,2.53
2023-05-14T15:34:03.082Z,3.25
2023-05-14T15:36:30.949Z,2.53
2023-05-14T15:38:58.820Z,2.17
2023-05-14T15:41:28.805Z,2.90
2023-05-14T15:43:58.680Z,2.78
2023-05-14T15:46:26.914Z,2.80
2023-05-14T15:48:56.087Z,2.90
2023-05-14T15:51:24.037Z,2.45
2023-05-14T15:53:53.829Z,2.47
2023-05-14T15:56:22.020Z,2.10
2023-05-14T15:58:51.129Z,2.50
2023-05-14T16:01:20.784Z,4.20
2023-05-14T16:03:48.788Z,2.78
2023-05-14T16:06:16.853Z,2.55
2023-05-14T16:08:45.354Z,2.38
2023-05-14T16:11:13.213Z,2.22
2023-05-14T16:13:42.774Z,2.00
2023-05-14T16:16:10.820Z,2.15
2023-05-14T16:18:40.458Z,2.10
2023-05-14T16:21:08.589Z,2.15
2023-05-14T16:23:37.801Z,2.00
2023-05-14T16:26:06.691Z,2.22
2023-05-14T16:28:36.093Z,2.30
2023-05-14T16:31:04.000Z,2.03
2023-05-14T16:33:32.036Z,2.83
2023-05-14T16:36:03.351Z,2.78
2023-05-14T16:38:31.244Z,2.72
2023-05-14T16:40:59.297Z,2.85
2023-05-14T16:43:28.858Z,2.13
2023-05-14T16:45:56.878Z,1.80
2023-05-14T16:48:26.834Z,2.35
2023-05-14T16:50:56.195Z,2.50
2023-05-14T16:53:27.496Z,1.98
2023-05-14T16:55:55.429Z,2.00
2023-05-14T16:58:23.389Z,2.30
2023-05-14T17:00:52.912Z,1.88
2023-05-14T17:03:22.886Z,2.42
2023-05-14T17:05:51.696Z,2.50
2023-05-14T17:08:21.077Z,2.42
2023-05-14T17:10:50.865Z,3.08
2023-05-14T17:13:18.826Z,2.80
2023-05-14T17:15:46.740Z,2.38
2023-05-14T17:18:14.719Z,2.70
2023-05-14T17:20:43.139Z,3.20
2023-05-14T17:23:13.280Z,4.30
2023-05-14T17:25:45.040Z,3.92
2023-05-14T17:28:15.335Z,4.28
2023-05-14T17:30:43.210Z,4.88
2023-05-14T17:33:11.567Z,4.95
2023-05-14T17:35:39.653Z,5.00
2023-05-14T17:38:07.526Z,5.28
2023-05-14T17:40:35.454Z,4.90
2023-05-14T17:43:05.126Z,4.55
2023-05-14T17:45:46.417Z,3.95
2023-05-14T17:48:21.763Z,5.60
2023-05-14T17:50:49.762Z,4.53
2023-05-14T17:53:20.286Z,4.00
2023-05-14T17:55:48.368Z,4.28
2023-05-14T17:58:18.306Z,3.70
2023-05-14T18:00:47.600Z,4.18
2023-05-14T18:03:15.618Z,4.20
2023-05-14T18:05:44.152Z,4.95
2023-05-14T18:08:12.039Z,4.80
2023-05-14T18:10:41.336Z,4.97
2023-05-14T18:13:09.349Z,4.38
2023-05-14T18:15:42.072Z,5.57
2023-05-14T18:18:11.466Z,4.18
2023-05-14T18:20:39.490Z,4.32
2023-05-14T18:23:07.529Z,3.97
2023-05-14T18:25:35.578Z,3.58
2023-05-14T18:28:04.290Z,6.90
2023-05-14T18:30:32.286Z,8.10
2023-05-14T18:33:00.398Z,4.53
2023-05-14T18:35:30.412Z,6.55
2023-05-14T18:37:59.118Z,9.70
2023-05-14T18:40:27.375Z,6.05
2023-05-14T18:42:59.008Z,8.18
2023-05-14T18:45:27.795Z,6.05
2023-05-14T18:47:56.737Z,8.95
2023-05-14T18:50:26.437Z,4.88
2023-05-14T18:52:59.211Z,5.68
2023-05-14T18:55:28.460Z,4.93
2023-05-14T18:57:57.212Z,5.18
2023-05-14T19:00:25.288Z,4.95
2023-05-14T19:02:54.591Z,5.78
2023-05-14T19:05:22.656Z,5.20
2023-05-14T19:07:52.231Z,5.35
2023-05-14T19:10:21.657Z,5.55
2023-05-14T19:12:51.302Z,5.38
2023-05-14T19:15:19.553Z,5.00
2023-05-14T19:17:47.499Z,5.63
2023-05-14T19:20:15.761Z,5.03
2023-05-14T19:22:43.828Z,5.45
2023-05-14T19:25:13.161Z,5.95
2023-05-14T19:27:44.908Z,5.25
2023-05-14T19:30:14.869Z,4.60
2023-05-14T19:32:42.972Z,5.05
2023-05-14T19:35:12.346Z,5.00
2023-05-14T19:37:40.211Z,4.38
2023-05-14T19:40:08.658Z,5.35
2023-05-14T19:42:38.531Z,4.93
2023-05-14T19:45:10.540Z,5.40
2023-05-14T19:47:40.166Z,6.22
2023-05-14T19:50:11.609Z,7.35
2023-05-14T19:52:39.616Z,7.03
2023-05-14T19:55:09.503Z,23.60
2023-05-14T19:57:40.519Z,11.73
2023-05-14T20:00:13.092Z,9.07
2023-05-14T20:02:43.599Z,10.70
2023-05-14T20:05:11.679Z,9.45
2023-05-14T20:07:41.641Z,8.27
2023-05-14T20:10:10.115Z,9.52
2023-05-14T20:12:38.223Z,7.28
2023-05-14T20:15:07.051Z,6.88
2023-05-14T20:17:36.851Z,7.95
2023-05-14T20:20:07.434Z,7.90
2023-05-14T20:22:36.248Z,7.97
2023-05-14T20:25:04.953Z,6.22
2023-05-14T20:27:32.858Z,6.30
2023-05-14T20:30:00.758Z,5.55
2023-05-14T20:32:29.379Z,5.85
2023-05-14T20:35:01.917Z,5.68
2023-05-14T20:37:31.323Z,5.15
2023-05-14T20:39:59.280Z,5.90
2023-05-14T20:42:28.239Z,5.93
2023-05-14T20:44:56.334Z,6.32
2023-05-14T20:47:27.917Z,6.00
2023-05-14T20:49:55.960Z,6.00
2023-05-14T20:52:25.392Z,6.25
2023-05-14T20:54:53.364Z,6.38
2023-05-14T20:57:21.551Z,7.07
2023-05-14T20:59:51.452Z,6.93
2023-05-14T21:02:21.397Z,6.55
2023-05-14T21:04:49.463Z,7.07
2023-05-14T21:07:17.413Z,6.50
2023-05-14T21:09:52.646Z,7.18
2023-05-14T21:12:21.309Z,6.45
2023-05-14T21:14:49.179Z,7.05
2023-05-14T21:17:17.074Z,6.22
2023-05-14T21:19:45.026Z,6.93
2023-05-14T21:22:13.942Z,6.10
2023-05-14T21:24:41.913Z,7.45
2023-05-14T21:27:11.242Z,6.93
2023-05-14T21:29:39.699Z,7.03
2023-05-14T21:32:08.666Z,5.97
2023-05-14T21:34:37.691Z,6.80
2023-05-14T21:37:06.077Z,6.47
2023-05-14T21:39:34.082Z,6.95
2023-05-14T21:42:01.962Z,7.53
2023-05-14T21:44:31.759Z,7.72
2023-05-14T21:47:00.207Z,7.22
2023-05-14T21:49:28.090Z,6.72
2023-05-14T21:51:56.040Z,6.00
2023-05-14T21:54:23.968Z,6.50
2023-05-14T21:56:52.014Z,6.20
2023-05-14T21:59:19.895Z,5.45
2023-05-14T22:04:19.977Z,6.57
2023-05-14T22:06:47.943Z,5.88
2023-05-14T22:09:15.955Z,5.20
2023-05-14T22:11:44.372Z,5.55
2023-05-14T22:14:12.325Z,5.45
2023-05-14T22:16:40.313Z,5.45
2023-05-14T22:19:09.926Z,5.65
2023-05-14T22:21:37.856Z,5.38
2023-05-14T22:24:05.931Z,5.53
2023-05-14T22:26:33.905Z,6.13
2023-05-14T22:29:01.837Z,5.30
2023-05-14T22:31:30.077Z,5.40
2023-05-14T22:33:58.038Z,5.70
2023-05-14T22:36:27.896Z,5.80
2023-05-14T22:38:55.800Z,5.70
2023-05-14T22:41:23.712Z,5.45
2023-05-14T22:43:52.339Z,5.05
2023-05-14T22:46:20.200Z,5.85
2023-05-14T22:48:49.229Z,5.38
2023-05-14T22:51:17.880Z,5.82
2023-05-14T22:53:47.454Z,5.70
2023-05-14T22:56:15.909Z,6.57
2023-05-14T22:58:43.801Z,6.07
2023-05-14T23:01:11.779Z,6.57
2023-05-14T23:03:39.637Z,6.78
2023-05-14T23:06:07.855Z,6.85
2023-05-14T23:08:35.803Z,6.45
2023-05-14T23:11:05.122Z,7.03
2023-05-14T23:13:33.029Z,7.32
2023-05-14T23:16:00.880Z,6.88
2023-05-14T23:18:28.874Z,8.43
2023-05-14T23:20:57.637Z,6.72
2023-05-14T23:23:26.022Z,6.50
2023-05-14T23:25:56.076Z,6.63
2023-05-14T23:28:25.472Z,6.68
2023-05-14T23:30:53.396Z,6.78
2023-05-14T23:33:21.229Z,7.25
2023-05-14T23:35:49.158Z,6.65
2023-05-14T23:38:17.043Z,7.53
2023-05-14T23:40:44.914Z,7.22
2023-05-14T23:43:12.855Z,7.70
2023-05-14T23:45:42.331Z,7.90
2023-05-14T23:48:10.306Z,8.07
2023-05-14T23:50:38.243Z,8.35
2023-05-14T23:53:06.126Z,8.10
2023-05-14T23:55:34.089Z,8.70
2023-05-14T23:58:02.018Z,9.02
